createdAt,value
2022-11-18T00:01:49.131Z,6.67
2022-11-18T00:04:18.860Z,6.73
2022-11-18T00:06:48.276Z,6.72
2022-11-18T00:09:17.904Z,6.84
2022-11-18T00:12:05.166Z,6.79
2022-11-18T00:14:34.414Z,6.74
2022-11-18T00:17:05.883Z,6.71
2022-11-18T00:19:37.835Z,6.62
2022-11-18T00:22:08.401Z,6.61
2022-11-18T00:24:37.863Z,6.60
2022-11-18T00:27:07.070Z,6.66
2022-11-18T00:29:36.460Z,6.63
2022-11-18T00:32:06.176Z,6.62
2022-11-18T00:34:35.590Z,6.61
2022-11-18T00:37:04.790Z,6.64
2022-11-18T00:39:34.049Z,6.61
2022-11-18T00:42:21.187Z,6.62
2022-11-18T00:44:50.703Z,6.62
2022-11-18T00:47:19.992Z,6.67
2022-11-18T00:49:49.406Z,6.61
2022-11-18T00:52:18.598Z,6.60
2022-11-18T00:54:47.876Z,6.60
2022-11-18T00:57:17.103Z,6.68
2022-11-18T00:59:46.363Z,6.69
2022-11-18T01:02:15.623Z,6.65
2022-11-18T01:04:44.870Z,6.62
2022-11-18T01:07:14.306Z,6.60
2022-11-18T01:09:43.677Z,6.62
2022-11-18T01:12:31.573Z,6.56
2022-11-18T01:15:01.379Z,6.55
2022-11-18T01:17:34.205Z,6.57
2022-11-18T01:20:03.460Z,6.54
2022-11-18T01:22:32.846Z,6.58
2022-11-18T01:25:02.141Z,6.60
2022-11-18T01:27:31.833Z,6.59
2022-11-18T01:30:01.082Z,6.59
2022-11-18T01:32:30.442Z,6.62
2022-11-18T01:34:59.675Z,6.62
2022-11-18T01:37:29.251Z,6.68
2022-11-18T01:39:58.465Z,6.67
2022-11-18T01:42:27.729Z,6.67
2022-11-18T01:45:18.005Z,6.79
2022-11-18T01:47:50.330Z,6.75
2022-11-18T01:50:21.273Z,6.68
2022-11-18T01:52:52.164Z,6.67
2022-11-18T01:55:27.400Z,6.67
2022-11-18T01:58:00.007Z,6.62
2022-11-18T02:00:28.659Z,6.61
2022-11-18T02:02:58.450Z,6.58
2022-11-18T02:05:27.929Z,6.58
2022-11-18T02:07:57.851Z,6.54
2022-11-18T02:10:27.361Z,6.52
2022-11-18T02:12:57.693Z,6.48
2022-11-18T02:15:39.260Z,6.43
2022-11-18T02:18:11.814Z,6.42
2022-11-18T02:20:43.959Z,6.46
2022-11-18T02:23:34.717Z,6.42
2022-11-18T02:26:16.033Z,6.44
2022-11-18T02:29:19.497Z,6.41
2022-11-18T02:32:10.048Z,6.41
2022-11-18T02:34:41.585Z,6.49
2022-11-18T02:37:22.625Z,6.43
2022-11-18T02:40:01.542Z,6.46
2022-11-18T02:42:32.274Z,6.41
2022-11-18T02:45:04.816Z,6.39
2022-11-18T02:47:36.073Z,6.37
2022-11-18T02:50:08.706Z,6.49
2022-11-18T02:52:37.323Z,6.42
2022-11-18T02:55:09.052Z,6.44
2022-11-18T02:57:39.251Z,6.41
2022-11-18T03:00:09.336Z,6.41
2022-11-18T03:02:44.337Z,6.39
2022-11-18T03:05:31.999Z,6.38
2022-11-18T03:08:04.817Z,6.34
2022-11-18T03:10:37.375Z,6.34
2022-11-18T03:13:07.151Z,6.37
2022-11-18T03:15:42.451Z,6.35
2022-11-18T03:18:20.838Z,6.28
2022-11-18T03:20:56.340Z,6.23
2022-11-18T03:23:43.705Z,6.18
2022-11-18T03:26:19.752Z,6.17
2022-11-18T03:28:54.867Z,6.16
2022-11-18T03:31:37.149Z,6.16
2022-11-18T03:34:12.675Z,6.15
2022-11-18T03:36:51.637Z,6.12
2022-11-18T03:39:19.869Z,6.09
2022-11-18T03:41:52.480Z,6.07
2022-11-18T03:44:27.613Z,6.03
2022-11-18T03:47:09.297Z,6.05
2022-11-18T03:49:46.550Z,5.97
2022-11-18T03:52:21.558Z,6.01
2022-11-18T03:54:53.486Z,5.93
2022-11-18T03:57:28.629Z,5.90
2022-11-18T04:00:06.784Z,5.89
2022-11-18T04:02:36.554Z,5.88
2022-11-18T04:05:07.899Z,5.97
2022-11-18T04:07:52.215Z,5.91
2022-11-18T04:10:27.079Z,5.86
2022-11-18T04:13:06.199Z,5.85
2022-11-18T04:15:35.923Z,5.92
2022-11-18T04:18:05.844Z,5.88
2022-11-18T04:20:35.198Z,5.89
2022-11-18T04:23:05.438Z,5.88
2022-11-18T04:25:35.587Z,5.88
2022-11-18T04:28:05.421Z,5.87
2022-11-18T04:30:35.005Z,5.78
2022-11-18T04:33:05.324Z,5.82
2022-11-18T04:35:34.642Z,5.85
2022-11-18T04:38:05.078Z,5.80
2022-11-18T04:40:34.468Z,5.82
2022-11-18T04:43:03.888Z,5.80
2022-11-18T04:45:33.079Z,5.79
2022-11-18T04:48:03.879Z,5.79
2022-11-18T04:50:33.324Z,5.81
2022-11-18T04:53:02.778Z,5.82
2022-11-18T04:55:32.013Z,5.81
2022-11-18T04:58:01.380Z,5.78
2022-11-18T05:00:30.644Z,5.78
2022-11-18T05:02:59.884Z,5.79
2022-11-18T05:05:29.218Z,5.77
2022-11-18T05:07:58.436Z,5.76
2022-11-18T05:10:27.668Z,5.75
2022-11-18T05:12:56.895Z,5.70
2022-11-18T05:15:26.183Z,5.75
2022-11-18T05:17:55.602Z,5.71
2022-11-18T05:20:25.008Z,5.71
2022-11-18T05:22:54.228Z,5.69
2022-11-18T05:25:23.590Z,5.69
2022-11-18T05:27:53.157Z,5.77
2022-11-18T05:30:22.468Z,5.70
2022-11-18T05:32:51.894Z,5.67
2022-11-18T05:35:21.154Z,5.69
2022-11-18T05:37:50.723Z,5.67
2022-11-18T05:40:19.948Z,5.64
2022-11-18T05:43:07.462Z,5.60
2022-11-18T05:45:36.871Z,5.61
2022-11-18T05:48:06.924Z,5.64
2022-11-18T05:50:38.119Z,5.61
2022-11-18T05:53:07.717Z,5.63
2022-11-18T05:55:40.259Z,5.64
2022-11-18T05:58:08.841Z,5.60
2022-11-18T06:00:38.105Z,5.56
2022-11-18T06:03:10.559Z,5.55
2022-11-18T06:05:39.962Z,5.61
2022-11-18T06:08:10.697Z,5.57
2022-11-18T06:10:40.392Z,5.60
2022-11-18T06:13:12.059Z,5.58
2022-11-18T06:15:43.216Z,5.56
2022-11-18T06:18:15.805Z,5.51
2022-11-18T06:20:44.706Z,5.50
2022-11-18T06:23:14.572Z,5.51
2022-11-18T06:25:43.989Z,5.53
2022-11-18T06:28:15.017Z,5.49
2022-11-18T06:30:44.546Z,5.48
2022-11-18T06:33:14.260Z,5.45
2022-11-18T06:35:44.121Z,5.45
2022-11-18T06:38:13.337Z,5.43
2022-11-18T06:40:44.407Z,5.40
2022-11-18T06:43:32.255Z,5.47
2022-11-18T06:46:21.530Z,5.45
2022-11-18T06:48:51.094Z,5.41
2022-11-18T06:51:20.860Z,5.40
2022-11-18T06:53:50.328Z,5.43
2022-11-18T06:56:21.350Z,5.41
2022-11-18T06:58:56.543Z,5.39
2022-11-18T07:01:28.137Z,5.43
2022-11-18T07:03:59.636Z,5.47
2022-11-18T07:06:31.824Z,5.40
2022-11-18T07:09:02.511Z,5.45
2022-11-18T07:11:31.762Z,5.49
2022-11-18T07:14:01.386Z,5.41
2022-11-18T07:16:30.760Z,5.44
2022-11-18T07:19:00.013Z,5.51
2022-11-18T07:21:30.337Z,5.46
2022-11-18T07:23:59.582Z,5.43
2022-11-18T07:26:28.943Z,5.42
2022-11-18T07:28:58.243Z,5.42
2022-11-18T07:31:27.650Z,5.44
2022-11-18T07:33:57.124Z,5.46
2022-11-18T07:36:35.153Z,5.53
2022-11-18T07:39:01.118Z,5.55
2022-11-18T07:41:31.510Z,5.58
2022-11-18T07:44:03.640Z,5.57
2022-11-18T07:46:35.401Z,5.62
2022-11-18T07:49:07.246Z,5.63
2022-11-18T07:51:39.192Z,5.68
2022-11-18T07:54:10.185Z,5.65
2022-11-18T07:56:39.492Z,5.73
2022-11-18T07:59:09.211Z,5.75
2022-11-18T08:01:38.743Z,5.74
2022-11-18T08:04:10.206Z,5.78
2022-11-18T08:06:40.279Z,5.80
2022-11-18T08:09:10.349Z,5.89
2022-11-18T08:11:41.130Z,5.95
2022-11-18T08:14:10.501Z,5.97
2022-11-18T08:16:39.839Z,6.03
2022-11-18T08:19:09.092Z,6.10
2022-11-18T08:21:38.398Z,6.14
2022-11-18T08:24:09.585Z,6.21
2022-11-18T08:26:39.393Z,6.28
2022-11-18T08:29:08.622Z,6.55
2022-11-18T08:31:38.065Z,6.72
2022-11-18T08:34:08.276Z,6.93
2022-11-18T08:36:38.908Z,7.08
2022-11-18T08:39:11.257Z,7.03
2022-11-18T08:41:42.875Z,7.14
2022-11-18T08:44:14.596Z,7.09
2022-11-18T08:46:47.922Z,7.05
2022-11-18T08:49:17.594Z,7.21
2022-11-18T08:51:47.101Z,7.26
2022-11-18T08:54:16.387Z,7.54
2022-11-18T08:56:45.645Z,7.90
2022-11-18T08:59:15.798Z,7.95
2022-11-18T09:01:45.654Z,8.15
2022-11-18T09:04:14.994Z,8.36
2022-11-18T09:06:44.425Z,8.39
2022-11-18T09:09:13.933Z,8.63
2022-11-18T09:11:43.294Z,8.80
2022-11-18T09:15:11.784Z,9.00
2022-11-18T09:16:44.931Z,9.06
2022-11-18T09:19:45.482Z,9.19
2022-11-18T09:21:46.586Z,9.24
2022-11-18T09:24:16.789Z,9.08
2022-11-18T09:26:46.423Z,9.65
2022-11-18T09:29:15.778Z,9.52
2022-11-18T09:31:45.126Z,9.66
2022-11-18T09:34:14.649Z,9.62
2022-11-18T09:36:44.018Z,9.32
2022-11-18T09:39:13.406Z,9.32
2022-11-18T09:41:47.979Z,9.24
2022-11-18T09:44:38.607Z,9.13
2022-11-18T09:47:36.828Z,9.59
2022-11-18T09:50:48.054Z,9.07
2022-11-18T09:53:23.857Z,8.95
2022-11-18T09:55:53.626Z,8.62
2022-11-18T09:58:31.728Z,8.89
2022-11-18T10:01:01.671Z,8.83
2022-11-18T10:03:32.993Z,8.90
2022-11-18T10:06:11.319Z,8.84
2022-11-18T10:08:49.795Z,8.95
2022-11-18T10:11:21.058Z,9.03
2022-11-18T10:13:53.784Z,9.09
2022-11-18T10:16:57.714Z,8.97
2022-11-18T10:19:38.574Z,9.05
2022-11-18T10:22:31.828Z,9.14
2022-11-18T10:25:01.674Z,9.04
2022-11-18T10:27:41.936Z,8.88
2022-11-18T10:30:14.686Z,8.70
2022-11-18T10:33:01.926Z,8.72
2022-11-18T10:35:39.406Z,8.70
2022-11-18T10:38:17.673Z,9.09
2022-11-18T10:40:55.995Z,10.04
2022-11-18T10:43:46.486Z,10.60
2022-11-18T10:46:30.444Z,10.32
2022-11-18T10:49:15.334Z,9.95
2022-11-18T10:51:50.487Z,10.47
2022-11-18T10:54:24.093Z,11.29
2022-11-18T10:57:05.579Z,11.59
2022-11-18T10:59:47.122Z,12.47
2022-11-18T11:02:36.617Z,12.85
2022-11-18T11:05:23.269Z,13.06
2022-11-18T11:08:35.301Z,12.69
2022-11-18T11:10:38.712Z,11.72
2022-11-18T11:13:14.036Z,12.79
2022-11-18T11:15:45.285Z,12.25
2022-11-18T11:18:36.027Z,12.08
2022-11-18T11:21:07.060Z,11.59
2022-11-18T11:23:36.282Z,11.87
2022-11-18T11:29:30.107Z,10.88
2022-11-18T11:32:31.089Z,10.90
2022-11-18T11:35:15.383Z,10.49
2022-11-18T11:38:01.807Z,10.56
2022-11-18T11:40:46.786Z,10.38
2022-11-18T11:43:24.826Z,10.40
2022-11-18T11:46:22.772Z,9.95
2022-11-18T11:49:13.492Z,9.76
2022-11-18T11:51:51.819Z,9.31
2022-11-18T11:54:27.176Z,9.07
2022-11-18T11:57:25.625Z,9.00
2022-11-18T12:00:02.799Z,8.67
2022-11-18T12:02:39.935Z,8.55
2022-11-18T12:05:35.914Z,8.50
2022-11-18T12:08:13.986Z,8.48
2022-11-18T12:10:55.356Z,8.44
2022-11-18T12:13:44.680Z,8.39
2022-11-18T12:16:41.250Z,8.40
2022-11-18T12:19:16.567Z,8.43
2022-11-18T12:21:49.266Z,8.45
2022-11-18T12:24:39.023Z,8.42
2022-11-18T12:27:14.042Z,8.50
2022-11-18T12:29:55.165Z,8.49
2022-11-18T12:32:45.760Z,8.54
2022-11-18T12:35:18.297Z,8.56
2022-11-18T12:37:56.504Z,8.53
2022-11-18T12:40:43.110Z,8.58
2022-11-18T12:43:45.870Z,8.61
2022-11-18T12:46:41.386Z,8.61
2022-11-18T12:49:27.493Z,8.63
2022-11-18T12:52:01.985Z,8.66
2022-11-18T12:54:36.377Z,8.65
2022-11-18T12:57:29.411Z,8.61
2022-11-18T12:59:57.978Z,8.63
2022-11-18T13:02:31.219Z,8.65
2022-11-18T13:05:11.911Z,8.62
2022-11-18T13:08:02.413Z,8.64
2022-11-18T13:10:34.163Z,8.65
2022-11-18T13:13:04.072Z,8.67
2022-11-18T13:15:51.482Z,8.70
2022-11-18T13:18:22.002Z,8.62
2022-11-18T13:20:59.071Z,8.62
2022-11-18T13:23:49.823Z,8.58
2022-11-18T13:26:30.096Z,8.60
2022-11-18T13:29:31.400Z,8.64
2022-11-18T13:32:04.083Z,8.71
2022-11-18T13:34:32.849Z,8.71
2022-11-18T13:37:02.313Z,8.69
2022-11-18T13:39:33.298Z,8.71
2022-11-18T13:42:23.160Z,8.69
2022-11-18T13:44:58.072Z,8.65
2022-11-18T13:47:54.044Z,8.65
2022-11-18T13:50:34.662Z,8.58
2022-11-18T13:53:22.648Z,8.52
2022-11-18T13:55:55.241Z,8.46
2022-11-18T13:59:15.952Z,8.38
2022-11-18T14:01:24.919Z,8.37
2022-11-18T14:03:56.955Z,8.33
2022-11-18T14:06:40.958Z,8.35
2022-11-18T14:09:30.453Z,8.28
2022-11-18T14:12:13.462Z,8.24
2022-11-18T14:14:44.392Z,8.21
2022-11-18T14:17:19.430Z,8.20
2022-11-18T14:19:51.889Z,8.18
2022-11-18T14:22:24.204Z,8.16
2022-11-18T14:24:59.145Z,8.18
2022-11-18T14:27:39.362Z,8.20
2022-11-18T14:30:34.298Z,8.17
2022-11-18T14:33:24.116Z,8.20
2022-11-18T14:36:02.232Z,8.21
2022-11-18T14:39:25.384Z,8.20
2022-11-18T14:41:23.476Z,8.24
2022-11-18T14:43:52.782Z,8.23
2022-11-18T14:46:22.241Z,8.20
2022-11-18T14:48:51.527Z,8.22
2022-11-18T14:51:21.668Z,8.24
2022-11-18T14:53:50.876Z,8.24
2022-11-18T14:56:32.843Z,8.17
2022-11-18T14:59:02.347Z,8.18
2022-11-18T15:01:31.813Z,8.22
2022-11-18T15:04:01.040Z,8.23
2022-11-18T15:06:30.295Z,8.22
2022-11-18T15:09:00.246Z,8.21
2022-11-18T15:11:29.583Z,8.18
2022-11-18T15:13:58.931Z,8.20
2022-11-18T15:16:31.026Z,8.16
2022-11-18T15:19:02.606Z,8.15
2022-11-18T15:21:32.389Z,8.20
2022-11-18T15:24:01.782Z,8.19
2022-11-18T15:26:37.220Z,8.20
2022-11-18T15:29:06.654Z,8.18
2022-11-18T15:31:35.875Z,8.17
2022-11-18T15:34:18.386Z,8.15
2022-11-18T15:36:36.429Z,8.19
2022-11-18T15:39:05.791Z,8.15
2022-11-18T15:41:35.214Z,8.17
2022-11-18T15:44:04.614Z,8.14
2022-11-18T15:46:34.294Z,8.12
2022-11-18T15:49:04.462Z,8.14
2022-11-18T15:51:34.154Z,8.20
2022-11-18T15:54:03.516Z,8.14
2022-11-18T15:56:33.868Z,8.13
2022-11-18T15:59:05.375Z,8.10
2022-11-18T16:01:37.881Z,8.11
2022-11-18T16:04:08.683Z,8.11
2022-11-18T16:06:38.537Z,8.11
2022-11-18T16:09:08.278Z,8.11
2022-11-18T16:11:55.490Z,8.12
2022-11-18T16:14:25.466Z,8.08
2022-11-18T16:16:56.611Z,8.12
2022-11-18T16:19:28.743Z,8.09
2022-11-18T16:21:58.396Z,8.07
2022-11-18T16:24:29.396Z,8.06
2022-11-18T16:26:59.039Z,8.07
2022-11-18T16:29:28.325Z,8.07
2022-11-18T16:31:57.656Z,8.07
2022-11-18T16:34:29.834Z,8.06
2022-11-18T16:37:02.702Z,8.08
2022-11-18T16:39:32.081Z,8.07
2022-11-18T16:42:08.495Z,8.04
2022-11-18T16:44:34.159Z,8.06
2022-11-18T16:47:06.499Z,8.05
2022-11-18T16:49:34.381Z,8.02
2022-11-18T16:52:03.715Z,8.05
2022-11-18T16:54:33.321Z,8.04
2022-11-18T16:57:02.736Z,8.07
2022-11-18T16:59:32.965Z,8.05
2022-11-18T17:02:03.051Z,8.01
2022-11-18T17:04:34.689Z,8.03
2022-11-18T17:07:04.095Z,8.02
2022-11-18T17:09:33.871Z,8.03
2022-11-18T17:12:03.661Z,8.06
2022-11-18T17:14:32.919Z,8.04
2022-11-18T17:17:02.113Z,8.05
2022-11-18T17:19:31.466Z,8.09
2022-11-18T17:22:00.836Z,8.04
2022-11-18T17:24:30.198Z,8.01
2022-11-18T17:26:59.577Z,7.99
2022-11-18T17:29:29.083Z,7.99
2022-11-18T17:31:58.354Z,7.97
2022-11-18T17:34:27.595Z,7.98
2022-11-18T17:37:00.196Z,7.97
2022-11-18T17:39:27.826Z,8.02
2022-11-18T17:42:15.534Z,7.97
2022-11-18T17:44:45.409Z,7.96
2022-11-18T17:47:14.612Z,7.97
2022-11-18T17:49:44.091Z,7.96
2022-11-18T17:52:13.362Z,7.97
2022-11-18T17:54:42.689Z,7.97
2022-11-18T17:57:12.000Z,7.96
2022-11-18T17:59:41.295Z,7.97
2022-11-18T18:02:12.613Z,7.98
2022-11-18T18:04:41.997Z,7.99
2022-11-18T18:07:11.406Z,8.00
2022-11-18T18:09:40.641Z,7.99
2022-11-18T18:12:27.829Z,8.02
2022-11-18T18:14:57.201Z,8.02
2022-11-18T18:17:26.537Z,7.98
2022-11-18T18:19:55.798Z,8.00
2022-11-18T18:22:25.067Z,8.00
2022-11-18T18:24:57.385Z,7.99
2022-11-18T18:27:26.631Z,7.98
2022-11-18T18:29:55.999Z,7.96
2022-11-18T18:32:25.289Z,7.94
2022-11-18T18:34:54.644Z,7.98
2022-11-18T18:37:23.865Z,7.97
2022-11-18T18:39:53.573Z,8.00
2022-11-18T18:42:22.807Z,7.97
2022-11-18T18:45:09.825Z,7.97
2022-11-18T18:47:39.152Z,7.96
2022-11-18T18:50:08.693Z,7.95
2022-11-18T18:52:37.926Z,7.97
2022-11-18T18:55:07.839Z,7.99
2022-11-18T18:57:37.433Z,7.98
2022-11-18T19:00:08.286Z,7.92
2022-11-18T19:02:37.531Z,7.90
2022-11-18T19:05:08.079Z,7.93
2022-11-18T19:07:37.405Z,7.91
2022-11-18T19:10:07.521Z,7.90
2022-11-18T19:12:47.235Z,7.88
2022-11-18T19:15:16.919Z,7.89
2022-11-18T19:17:47.272Z,7.87
2022-11-18T19:20:36.828Z,7.89
2022-11-18T19:23:10.356Z,7.90
2022-11-18T19:25:39.430Z,7.88
2022-11-18T19:28:09.498Z,7.89
2022-11-18T19:30:39.187Z,7.87
2022-11-18T19:33:08.569Z,7.86
2022-11-18T19:35:38.257Z,7.87
2022-11-18T19:38:07.758Z,7.84
2022-11-18T19:40:37.019Z,7.84
2022-11-18T19:43:06.628Z,7.82
2022-11-18T19:45:35.993Z,7.82
2022-11-18T19:48:06.280Z,7.83
2022-11-18T19:50:35.819Z,7.84
2022-11-18T19:53:06.850Z,7.85
2022-11-18T19:55:36.249Z,7.85
2022-11-18T19:58:05.475Z,7.88
2022-11-18T20:00:34.846Z,7.88
2022-11-18T20:03:06.069Z,7.90
2022-11-18T20:05:54.903Z,7.91
2022-11-18T20:08:25.624Z,7.88
2022-11-18T20:10:55.111Z,7.89
2022-11-18T20:13:24.361Z,7.88
2022-11-18T20:15:54.006Z,7.88
2022-11-18T20:18:24.937Z,7.90
2022-11-18T20:20:54.505Z,7.92
2022-11-18T20:23:24.399Z,7.89
2022-11-18T20:25:53.905Z,7.85
2022-11-18T20:28:23.129Z,7.85
2022-11-18T20:30:55.654Z,7.84
2022-11-18T20:33:25.059Z,7.85
2022-11-18T20:35:54.480Z,7.86
2022-11-18T20:38:25.110Z,7.85
2022-11-18T20:40:54.397Z,7.85
2022-11-18T20:43:23.836Z,7.86
2022-11-18T20:45:55.672Z,7.88
2022-11-18T20:48:25.066Z,7.89
2022-11-18T20:50:54.708Z,7.87
2022-11-18T20:53:25.911Z,7.90
2022-11-18T20:55:55.570Z,7.86
2022-11-18T20:58:25.032Z,7.87
2022-11-18T21:00:58.049Z,7.86
2022-11-18T21:03:25.576Z,7.83
2022-11-18T21:05:54.827Z,7.90
2022-11-18T21:08:24.192Z,7.89
2022-11-18T21:10:53.416Z,7.91
2022-11-18T21:13:41.119Z,7.88
2022-11-18T21:16:10.353Z,7.88
2022-11-18T21:18:39.814Z,7.87
2022-11-18T21:21:27.118Z,7.87
2022-11-18T21:23:58.190Z,7.87
2022-11-18T21:26:29.759Z,7.87
2022-11-18T21:29:00.615Z,7.86
2022-11-18T21:31:30.390Z,7.86
2022-11-18T21:33:59.941Z,7.84
2022-11-18T21:36:29.854Z,7.84
2022-11-18T21:38:59.628Z,7.80
2022-11-18T21:41:30.286Z,7.92
2022-11-18T21:44:06.908Z,7.87
2022-11-18T21:46:32.275Z,7.87
2022-11-18T21:49:01.930Z,7.89
2022-11-18T21:51:35.054Z,7.76
2022-11-18T21:54:04.748Z,7.82
2022-11-18T21:56:34.652Z,7.81
2022-11-18T21:59:04.095Z,7.84
2022-11-18T22:01:34.437Z,7.88
2022-11-18T22:04:05.602Z,7.79
2022-11-18T22:06:35.629Z,7.59
2022-11-18T22:09:06.180Z,7.35
2022-11-18T22:11:35.593Z,7.22
2022-11-18T22:14:06.271Z,7.13
2022-11-18T22:16:35.766Z,7.01
2022-11-18T22:19:08.174Z,6.81
2022-11-18T22:21:36.292Z,6.78
2022-11-18T22:24:06.092Z,6.63
2022-11-18T22:26:36.009Z,6.47
2022-11-18T22:29:05.628Z,6.48
2022-11-18T22:31:35.208Z,6.41
2022-11-18T22:34:04.526Z,6.39
2022-11-18T22:36:34.490Z,6.33
2022-11-18T22:39:04.028Z,6.31
2022-11-18T22:41:51.435Z,6.28
2022-11-18T22:44:20.678Z,6.16
2022-11-18T22:46:50.045Z,6.13
2022-11-18T22:49:19.568Z,6.15
2022-11-18T22:51:48.967Z,6.10
2022-11-18T22:56:49.295Z,5.97
2022-11-18T22:59:19.118Z,5.90
2022-11-18T23:01:48.641Z,5.85
2022-11-18T23:04:17.939Z,5.79
2022-11-18T23:06:47.342Z,5.79
2022-11-18T23:09:17.264Z,5.77
2022-11-18T23:12:04.788Z,5.58
2022-11-18T23:14:34.170Z,5.41
2022-11-18T23:17:04.772Z,5.38
2022-11-18T23:19:34.071Z,5.29
2022-11-18T23:22:03.259Z,5.29
2022-11-18T23:24:32.598Z,5.08
2022-11-18T23:27:01.823Z,5.14
2022-11-18T23:29:31.215Z,5.14
2022-11-18T23:32:00.451Z,5.10
2022-11-18T23:34:29.762Z,4.95
2022-11-18T23:36:58.976Z,4.96
2022-11-18T23:39:28.330Z,4.90
2022-11-18T23:41:57.527Z,4.87
2022-11-18T23:44:28.531Z,4.85
2022-11-18T23:46:57.745Z,4.85
2022-11-18T23:49:27.049Z,4.86
2022-11-18T23:51:56.462Z,4.81
2022-11-18T23:54:25.870Z,4.80
2022-11-18T23:56:55.138Z,4.71
2022-11-18T23:59:24.380Z,4.70
